Ana Sayfa
METAR-TAF:

METAR-TAF

Havaalanları :

Yamoussoukro, Fildişi Sahili

Enlem: 06-54N, Boylam: 005-21W, yükseklik: 196 m

Güncel hava durumu gözlemi

Rapor saat 01:00 UTC de 2 saat ve 14 dakika önce yapıldı.
Rüzgar güneydan 8 kt
Sıcaklık 27°C
Nem 74%
Basınç 1012 hPa
Görüş mesafesi: 6000 m

METAR: DIYO 190100Z 18008KT 6000 NSC 27/22 Q1012 NOSIG

Saat: 03:14 (03:14 UTC)

Tahmin

Rapor saat 23:00 UTC de 4 saat ve 14 dakika önce yapıldı.
Ayın 19'si saat 00 UTC'den ayın 19'si saat 24 UTC'ye kadar geçerli Tahmin
Rüzgar güney/güneybatıdan 4 kt
Görüş mesafesi: 6000 m
Olasılık 30%
ayın 19'si saat 02 UTC'den ayın 19'si saat 08 UTC'ye kadar
Görüş mesafesi: 2000 m
Pus
Olasılık 30% :
Geçici
ayın 19'si saat 15 UTC'den ayın 19'si saat 21 UTC'ye kadar
1300 ft yükseklikte parçalı bulutlu
2000 ft yükseklikte az bulutlu, Kümülonimbus.
gök gürültülü fırtına

TAF: DIYO 182300Z 1900/1924 20004KT 6000 NSC PROB30 1902/1908 2000 BR PROB30 TEMPO 1915/1921 TS SCT013 FEW020CB

4.000'den fazla havaalanı için hava durumu gözlemleri ve tahminleri (METAR ve TAF raporları).

Kullanılabilir istasyonlar harita üzerinde sarı ve kırmızı noktalarla gösterilir.

İstasyonun adını görmek için fareyi noktanın üzerinde gezdirin.

Sonrasında hava gözlem ve tahminlerini görmek için tıklayın.

Haritayı değiştirmek için: yaklaştırmak için siyah artı işaretli yeşil düğmeye ve uzaklaştırmak için de eksi işaretli düğmeye hızla tıklayın; bitişik haritalar için yeşil okları kullanın.


METAR-TAF: